• Join FlightAware (Why Join?)
  • Login
  • US Flag 
Rudolph Flight #1: Arrived! 
08:43AM EST


 

Airport Tracker/Info


-or-


 

Live Flight TrackerFlight Track Log ✈ CCA4324 ✈ 08-May-2012 ✈ ZGKL / KWL - ZUUU / CTU

Flight Track Log - Related Links

Times and Time Zones

All times are in EDT time to prevent confusion due to time zone crossing. See the CCA4324 flight status page for this flight to view local times or setup timezone preferences in your user account.

Time Position Orientation Groundspeed Altitude Reporting Facility
EDT Latitude Longitude Course Direction KTS MPH feet Rate Location/Type
10:50AM 25.3961 109.8505 316° Northwest  Level Estimated
10:51AM 25.4663 109.7759 316° Northwest  Level Estimated
10:52AM 25.5365 109.7012 316° Northwest  Level Estimated
10:53AM 25.6066 109.6264 316° Northwest  Level Estimated
10:54AM 25.6767 109.5515 316° Northwest  Level Estimated
10:55AM 25.7467 109.4765 316° Northwest  Level Estimated
10:56AM 25.8167 109.4015 316° Northwest  Level Estimated
10:57AM 25.8867 109.3263 316° Northwest  Level Estimated
10:58AM 25.9566 109.2511 316° Northwest  Level Estimated
10:59AM 26.0265 109.1758 316° Northwest  Level Estimated
11:00AM 26.0964 109.1003 316° Northwest  Level Estimated
11:01AM 26.1662 109.0248 316° Northwest  Level Estimated
11:02AM 26.2360 108.9492 316° Northwest  Level Estimated
11:03AM 26.3057 108.8735 316° Northwest  Level Estimated
11:04AM 26.3754 108.7978 316° Northwest  Level Estimated
11:05AM 26.4450 108.7219 316° Northwest  Level Estimated
11:06AM 26.5146 108.6459 316° Northwest  Level Estimated
11:07AM 26.5842 108.5699 316° Northwest  Level Estimated
11:08AM 26.6537 108.4937 316° Northwest  Level Estimated
11:09AM 26.7232 108.4175 316° Northwest  Level Estimated
11:10AM 26.7927 108.3411 316° Northwest  Level Estimated
11:11AM 26.8621 108.2647 315° West  Level Estimated
11:12AM 26.9314 108.1882 315° West  Level Estimated
11:13AM 27.0008 108.1116 315° West  Level Estimated
11:14AM 27.0701 108.0349 315° West  Level Estimated
11:15AM 27.1393 107.9581 315° West  Level Estimated
11:16AM 27.2085 107.8811 315° West  Level Estimated
11:17AM 27.2777 107.8042 315° West  Level Estimated
11:18AM 27.3468 107.7271 315° West  Level Estimated
11:19AM 27.4159 107.6499 315° West  Level Estimated
11:20AM 27.4849 107.5726 315° West  Level Estimated
11:21AM 27.5539 107.4952 315° West  Level Estimated
11:22AM 27.6228 107.4177 315° West  Level Estimated
11:23AM 27.6917 107.3401 315° West  Level Estimated
11:24AM 27.7606 107.2625 315° West  Level Estimated
11:25AM 27.8294 107.1847 315° West  Level Estimated
11:26AM 27.8982 107.1068 315° West  Level Estimated
11:27AM 27.9669 107.0288 315° West  Level Estimated
11:28AM 28.0356 106.9508 315° West  Level Estimated
11:29AM 28.1043 106.8726 315° West  Level Estimated
11:30AM 28.1729 106.7943 315° West  Level Estimated
11:31AM 28.2414 106.7160 315° West  Level Estimated
11:32AM 28.3099 106.6375 315° West  Level Estimated
11:33AM 28.3784 106.5589 315° West  Level Estimated
11:34AM 28.4468 106.4802 315° West  Level Estimated
11:35AM 28.5152 106.4015 315° West  Level Estimated
11:36AM 28.5835 106.3226 315° West  Level Estimated
11:37AM 28.6518 106.2436 315° West  Level Estimated
11:38AM 28.7200 106.1645 315° West  Level Estimated
11:39AM 28.7882 106.0853 314° West  Level Estimated
11:40AM 28.8563 106.0060 314° West  Level Estimated
11:41AM 28.9244 105.9267 314° West  Level Estimated
11:42AM 28.9925 105.8472 314° West  Level Estimated
11:43AM 29.0605 105.7675 314° West  Level Estimated
11:44AM 29.1285 105.6878 314° West  Level Estimated
11:45AM 29.1964 105.6080 314° West  Level Estimated
11:46AM 29.2642 105.5281 314° West  Level Estimated
11:47AM 29.3321 105.4481 314° West  Level Estimated
11:48AM 29.3998 105.3680 314° West  Level Estimated
11:49AM 29.4675 105.2877 314° West  Level Estimated
11:50AM 29.5352 105.2074 314° West  Level Estimated
11:51AM 29.6028 105.1269 314° West  Level Estimated
11:52AM 29.6704 105.0463 314° West  Level Estimated
11:53AM 29.7379 104.9657 314° West  Level Estimated
11:54AM 29.8054 104.8849 314° West  Level Estimated
11:55AM 29.8728 104.8040 314° West  Level Estimated
11:56AM 29.9402 104.7230 314° West  Level Estimated
11:57AM 30.0075 104.6419 314° West  Level Estimated
11:58AM 30.0748 104.5607 314° West  Level Estimated
11:59AM 30.1421 104.4793 314° West  Level Estimated
12:00PM 30.2092 104.3979 314° West  Level Estimated
12:01PM 30.2764 104.3164 314° West  Level Estimated
12:02PM 30.3434 104.2347 314° West  Level Estimated
12:03PM 30.4105 104.1529 314° West  Level Estimated
12:04PM 30.4774 104.0710 313° West  Level Estimated
12:05PM 30.5443 103.9890 313° West  Level Estimated
12:06PM 30.6112 103.9069 133° Southeast  Level Estimated
12:07PM 30.5443 103.9890 313° West  Level Estimated
12:08PM 30.6112 103.9069 133° Southeast  Level Estimated
12:09PM 30.5443 103.9890 313° West  Level Estimated
12:10PM 30.6112 103.9069 133° Southeast  Level Estimated
12:11PM 30.5443 103.9890 313° West  Level Estimated
12:12PM 30.6112 103.9069 133° Southeast  Level Estimated
12:13PM 30.5443 103.9890 313° West  Level Estimated
12:14PM 30.6112 103.9069 133° Southeast  Level Estimated
12:15PM 30.5443 103.9890 313° West  Level Estimated
12:16PM 30.6112 103.9069 133° Southeast  Level Estimated
12:17PM 30.5443 103.9890 313° West  Level Estimated
12:18PM 30.6112 103.9069 133° Southeast  Level Estimated
12:19PM 30.5443 103.9890 313° West  Level Estimated
12:20PM 30.6112 103.9069 133° Southeast  Level Estimated
12:21PM 30.5443 103.9890 133° Southeast  Level Estimated